createdAt,value
2023-01-10T05:00:56.026Z,99.99
2023-01-10T05:01:56.047Z,99.99
2023-01-10T05:02:55.993Z,99.99
2023-01-10T05:03:55.860Z,99.99
2023-01-10T05:04:55.833Z,99.99
2023-01-10T05:05:55.845Z,99.99
2023-01-10T05:06:55.829Z,99.99
2023-01-10T05:07:55.852Z,99.99
2023-01-10T05:08:55.794Z,99.99
2023-01-10T05:09:55.790Z,99.99
2023-01-10T05:10:55.791Z,99.99
2023-01-10T05:11:55.782Z,99.99
2023-01-10T05:12:55.730Z,99.99
2023-01-10T05:14:02.791Z,99.99
2023-01-10T05:15:00.574Z,99.99
2023-01-10T05:15:55.719Z,99.99
2023-01-10T05:16:55.709Z,99.99
2023-01-10T05:17:55.694Z,99.99
2023-01-10T05:18:55.652Z,99.99
2023-01-10T05:19:55.658Z,99.99
2023-01-10T05:20:55.708Z,99.99
2023-01-10T05:21:56.293Z,99.99
2023-01-10T05:22:55.597Z,99.99
2023-01-10T05:23:55.611Z,99.99
2023-01-10T05:24:55.583Z,99.99
2023-01-10T05:25:55.720Z,99.99
2023-01-10T05:26:55.557Z,99.99
2023-01-10T05:27:55.598Z,99.99
2023-01-10T05:28:55.527Z,99.99
2023-01-10T05:29:55.537Z,99.99
2023-01-10T05:30:55.507Z,99.99
2023-01-10T05:31:55.597Z,99.99
2023-01-10T05:32:55.484Z,99.99
2023-01-10T05:33:59.505Z,99.99
2023-01-10T05:34:55.497Z,99.99
2023-01-10T05:35:55.463Z,99.99
2023-01-10T05:36:55.444Z,99.99
2023-01-10T05:37:55.446Z,99.99
2023-01-10T05:38:55.411Z,99.99
2023-01-10T05:39:55.634Z,99.99
2023-01-10T05:40:55.415Z,99.99
2023-01-10T05:41:55.361Z,99.99
2023-01-10T05:42:55.372Z,99.99
2023-01-10T05:43:55.332Z,99.99
2023-01-10T05:44:55.371Z,99.99
2023-01-10T05:45:55.419Z,99.99
2023-01-10T05:46:55.386Z,99.99
2023-01-10T05:47:55.279Z,99.99
2023-01-10T05:48:55.305Z,99.99
2023-01-10T05:49:55.266Z,99.99
2023-01-10T05:50:55.271Z,99.99
2023-01-10T05:51:55.242Z,99.99
2023-01-10T05:52:55.933Z,99.99
2023-01-10T05:53:55.217Z,99.99
2023-01-10T05:54:55.225Z,99.99
2023-01-10T05:55:55.183Z,99.99
2023-01-10T05:56:55.204Z,99.99
2023-01-10T05:57:55.165Z,99.99
2023-01-10T05:59:05.321Z,99.99
2023-01-10T05:59:56.147Z,99.99
2023-01-10T06:00:55.150Z,99.99
2023-01-10T06:01:55.167Z,99.99
2023-01-10T06:02:55.458Z,99.99
2023-01-10T06:03:55.075Z,99.99
2023-01-10T06:04:55.085Z,99.99
2023-01-10T06:05:55.086Z,99.99
2023-01-10T06:06:55.078Z,99.99
2023-01-10T06:07:55.044Z,99.99
2023-01-10T06:08:55.244Z,99.99
2023-01-10T06:09:55.046Z,99.99
2023-01-10T06:10:55.054Z,99.99
2023-01-10T06:11:54.998Z,99.99
2023-01-10T06:12:55.021Z,99.99
2023-01-10T06:13:54.962Z,99.99
2023-01-10T06:14:55.163Z,99.99
2023-01-10T06:15:54.967Z,99.99
2023-01-10T06:16:54.950Z,99.99
2023-01-10T06:17:54.944Z,99.99
2023-01-10T06:18:54.910Z,99.99
2023-01-10T06:19:54.884Z,99.99
2023-01-10T06:20:55.007Z,99.99
2023-01-10T06:21:54.859Z,99.99
2023-01-10T06:22:54.900Z,99.99
2023-01-10T06:23:54.866Z,99.99
2023-01-10T06:24:54.847Z,99.99
2023-01-10T06:25:54.807Z,99.99
2023-01-10T06:26:54.872Z,99.99
2023-01-10T06:27:54.790Z,99.99
2023-01-10T06:28:54.795Z,99.99
2023-01-10T06:29:54.757Z,99.99
2023-01-10T06:30:54.815Z,99.99
2023-01-10T06:31:54.763Z,99.99
2023-01-10T06:32:54.786Z,99.99
2023-01-10T06:33:54.706Z,99.99
2023-01-10T06:34:54.725Z,99.99
2023-01-10T06:35:54.685Z,99.99
2023-01-10T06:36:54.684Z,99.99
2023-01-10T06:37:54.697Z,99.99
2023-01-10T06:38:54.666Z,99.99
2023-01-10T06:39:54.637Z,99.99
2023-01-10T06:40:54.644Z,99.99
2023-01-10T06:41:54.609Z,99.99
2023-01-10T06:42:54.642Z,99.99
2023-01-10T06:43:54.596Z,99.99
2023-01-10T06:44:54.598Z,99.99
2023-01-10T06:45:54.671Z,99.99
2023-01-10T06:46:54.582Z,99.99
2023-01-10T06:47:54.552Z,99.99
2023-01-10T06:48:54.542Z,99.99
2023-01-10T06:49:54.502Z,99.99
2023-01-10T06:50:54.519Z,99.99
2023-01-10T06:51:54.507Z,99.99
2023-01-10T06:52:54.491Z,99.99
2023-01-10T06:53:54.449Z,99.99
2023-01-10T06:54:54.460Z,99.99
2023-01-10T06:55:54.727Z,99.99
2023-01-10T06:56:54.433Z,99.99
2023-01-10T06:57:54.399Z,99.99
2023-01-10T06:58:54.417Z,99.99
2023-01-10T06:59:54.372Z,99.99
2023-01-10T07:00:54.400Z,99.99
2023-01-10T07:01:55.009Z,99.99
2023-01-10T07:02:54.359Z,99.99
2023-01-10T07:03:54.370Z,99.99
2023-01-10T07:04:54.336Z,99.99
2023-01-10T07:05:54.298Z,99.99
2023-01-10T07:06:54.309Z,99.99
2023-01-10T07:07:54.319Z,99.99
2023-01-10T07:08:54.274Z,99.99
2023-01-10T07:09:54.257Z,99.99
2023-01-10T07:10:54.312Z,99.99
2023-01-10T07:11:54.224Z,99.99
2023-01-10T07:12:54.234Z,99.99
2023-01-10T07:13:54.209Z,99.99
2023-01-10T07:14:54.212Z,99.99
2023-01-10T07:15:54.189Z,99.99
2023-01-10T07:16:54.925Z,99.99
2023-01-10T07:17:54.150Z,99.99
2023-01-10T07:18:54.153Z,99.99
2023-01-10T07:19:54.131Z,99.99
2023-01-10T07:20:54.140Z,99.99
2023-01-10T07:21:54.114Z,99.99
2023-01-10T07:22:54.159Z,99.99
2023-01-10T07:23:54.079Z,99.99
2023-01-10T07:24:54.072Z,99.99
2023-01-10T07:25:54.040Z,99.99
2023-01-10T07:26:54.050Z,99.99
2023-01-10T07:27:54.024Z,99.99
2023-01-10T07:28:54.128Z,99.99
2023-01-10T07:29:53.998Z,99.99
2023-01-10T07:30:54.029Z,99.99
2023-01-10T07:31:53.973Z,99.99
2023-01-10T07:32:53.988Z,99.99
2023-01-10T07:33:53.946Z,99.99
2023-01-10T07:34:54.145Z,99.99
2023-01-10T07:35:53.924Z,99.99
2023-01-10T07:36:53.931Z,99.99
2023-01-10T07:37:53.899Z,99.99
2023-01-10T07:38:53.905Z,99.99
2023-01-10T07:39:53.874Z,99.99
2023-01-10T07:40:54.085Z,99.99
2023-01-10T07:41:53.846Z,99.99
2023-01-10T07:42:53.864Z,99.99
2023-01-10T07:43:53.825Z,99.99
2023-01-10T07:44:53.836Z,99.99
2023-01-10T07:45:53.828Z,99.99
2023-01-10T07:46:54.116Z,99.99
2023-01-10T07:47:53.777Z,99.99
2023-01-10T07:48:53.784Z,99.99
2023-01-10T07:49:53.747Z,99.99
2023-01-10T07:50:53.756Z,99.99
2023-01-10T07:51:53.719Z,99.99
2023-01-10T07:52:53.813Z,99.99
2023-01-10T07:53:53.700Z,99.99
2023-01-10T07:54:53.693Z,99.99
2023-01-10T07:55:53.675Z,99.99
2023-01-10T07:56:53.697Z,99.99
2023-01-10T07:57:53.649Z,99.99
2023-01-10T07:58:53.709Z,99.99
2023-01-10T07:59:53.708Z,99.99
2023-01-10T08:00:53.681Z,99.99
2023-01-10T08:01:53.597Z,99.99
2023-01-10T08:02:53.707Z,99.99
2023-01-10T08:03:53.588Z,99.99
2023-01-10T08:04:53.580Z,99.99
2023-01-10T08:05:53.605Z,99.99
2023-01-10T08:06:53.559Z,99.99
2023-01-10T08:07:53.517Z,99.99
2023-01-10T08:08:53.546Z,99.99
2023-01-10T08:09:53.501Z,99.99
2023-01-10T08:10:53.506Z,99.99
2023-01-10T08:11:53.539Z,99.99
2023-01-10T08:12:53.479Z,99.99
2023-01-10T08:13:53.446Z,99.99
2023-01-10T08:14:53.778Z,99.99
2023-01-10T08:15:53.471Z,99.99
2023-01-10T08:16:53.429Z,99.99
2023-01-10T08:17:53.400Z,99.99
2023-01-10T08:18:53.394Z,99.99
2023-01-10T08:19:53.373Z,99.99
2023-01-10T08:20:53.408Z,99.99
2023-01-10T08:21:53.457Z,99.99
2023-01-10T08:22:53.350Z,99.99
2023-01-10T08:23:53.325Z,99.99
2023-01-10T08:24:53.326Z,99.99
2023-01-10T08:25:53.313Z,99.99
2023-01-10T08:26:53.344Z,99.99
2023-01-10T08:27:53.278Z,99.99
2023-01-10T08:28:53.287Z,99.99
2023-01-10T08:29:53.240Z,99.99
2023-01-10T08:30:53.294Z,99.99
2023-01-10T08:31:53.210Z,99.99
2023-01-10T08:32:53.280Z,99.99
2023-01-10T08:33:53.190Z,99.99
2023-01-10T08:34:53.202Z,99.99
2023-01-10T08:35:53.164Z,99.99
2023-01-10T08:36:53.177Z,99.99
2023-01-10T08:37:53.139Z,99.99
2023-01-10T08:38:53.190Z,99.99
2023-01-10T08:39:53.121Z,99.99
2023-01-10T08:40:53.664Z,99.99
2023-01-10T08:41:53.091Z,99.99
2023-01-10T08:42:53.089Z,99.99
2023-01-10T08:43:53.081Z,99.99
2023-01-10T08:44:53.076Z,99.99
2023-01-10T08:45:53.037Z,99.99
2023-01-10T08:46:53.399Z,99.99
2023-01-10T08:47:53.016Z,99.99
2023-01-10T08:48:53.027Z,99.99
2023-01-10T08:49:53.027Z,99.99
2023-01-10T08:50:53.002Z,99.99
2023-01-10T08:51:52.964Z,99.99
2023-01-10T08:52:52.988Z,99.99
2023-01-10T08:53:52.947Z,99.99
2023-01-10T08:54:52.945Z,99.99
2023-01-10T08:55:53.355Z,99.99
2023-01-10T08:56:52.925Z,99.99
2023-01-10T08:57:52.894Z,99.99
2023-01-10T08:58:52.917Z,99.99
2023-01-10T08:59:52.863Z,99.99
2023-01-10T09:00:52.895Z,99.99
2023-01-10T09:01:52.897Z,99.99
2023-01-10T09:02:52.906Z,99.99
2023-01-10T09:03:52.826Z,99.99
2023-01-10T09:04:52.802Z,99.99
2023-01-10T09:05:52.781Z,99.99
2023-01-10T09:06:52.792Z,99.99
2023-01-10T09:07:52.804Z,99.99
2023-01-10T09:08:52.766Z,99.99
2023-01-10T09:09:52.731Z,99.99
2023-01-10T09:10:52.812Z,99.99
2023-01-10T09:11:52.720Z,99.99
2023-01-10T09:12:52.715Z,99.99
2023-01-10T09:13:52.691Z,99.99
2023-01-10T09:14:59.734Z,99.99
2023-01-10T09:16:00.109Z,99.99
2023-01-10T09:16:59.973Z,99.99
2023-01-10T09:17:59.690Z,99.99
2023-01-10T09:18:59.659Z,99.99
2023-01-10T09:19:59.642Z,99.99
2023-01-10T09:20:52.688Z,99.91
2023-01-10T09:21:52.590Z,99.86
2023-01-10T09:22:52.596Z,99.96
2023-01-10T09:23:52.543Z,99.65
2023-01-10T09:24:52.562Z,99.55
2023-01-10T09:25:52.533Z,99.55
2023-01-10T09:26:52.650Z,99.65
2023-01-10T09:27:52.501Z,99.55
2023-01-10T09:28:52.510Z,99.34
2023-01-10T09:29:52.491Z,99.14
2023-01-10T09:30:52.550Z,99.04
2023-01-10T09:31:52.458Z,98.83
2023-01-10T09:32:53.092Z,98.93
2023-01-10T09:33:52.432Z,98.72
2023-01-10T09:34:52.428Z,98.83
2023-01-10T09:35:52.415Z,98.72
2023-01-10T09:36:52.419Z,98.62
2023-01-10T09:37:52.386Z,98.41
2023-01-10T09:38:52.437Z,98.00
2023-01-10T09:39:52.360Z,97.79
2023-01-10T09:40:52.419Z,97.69
2023-01-10T09:41:52.329Z,97.59
2023-01-10T09:42:52.352Z,97.89
2023-01-10T09:43:52.327Z,97.69
2023-01-10T09:44:52.295Z,97.59
2023-01-10T09:45:52.307Z,97.17
2023-01-10T09:46:52.595Z,97.38
2023-01-10T09:47:52.305Z,97.49
2023-01-10T09:48:52.275Z,96.76
2023-01-10T09:49:52.262Z,96.41
2023-01-10T09:50:52.233Z,96.61
2023-01-10T09:51:52.252Z,96.61
2023-01-10T09:52:52.241Z,96.72
2023-01-10T09:53:53.706Z,96.92
2023-01-10T09:54:52.166Z,96.88
2023-01-10T09:55:52.197Z,96.98
2023-01-10T09:56:52.143Z,96.47
2023-01-10T09:57:52.143Z,96.15
2023-01-10T09:58:52.674Z,96.56
2023-01-10T09:59:52.118Z,96.56
2023-01-10T10:00:52.183Z,95.74
2023-01-10T10:01:52.094Z,95.74
2023-01-10T10:02:52.065Z,95.53
2023-01-10T10:03:52.225Z,95.74
2023-01-10T10:04:52.292Z,96.05
2023-01-10T10:05:55.975Z,96.05
2023-01-10T10:06:53.019Z,95.95
2023-01-10T10:07:52.014Z,94.81
2023-01-10T10:08:51.991Z,94.60
2023-01-10T10:09:51.996Z,94.60
2023-01-10T10:10:52.102Z,94.50
2023-01-10T10:11:51.958Z,94.29
2023-01-10T10:12:51.964Z,94.09
2023-01-10T10:13:51.938Z,94.29
2023-01-10T10:14:51.905Z,94.71
2023-01-10T10:15:51.941Z,94.71
2023-01-10T10:16:51.938Z,94.19
2023-01-10T10:17:51.876Z,93.78
2023-01-10T10:18:51.847Z,93.78
2023-01-10T10:19:51.874Z,93.78
2023-01-10T10:20:51.829Z,94.29
2023-01-10T10:21:51.828Z,94.50
2023-01-10T10:22:52.265Z,93.84
2023-01-10T10:23:51.809Z,93.43
2023-01-10T10:24:51.785Z,92.95
2023-01-10T10:25:51.836Z,92.54
2023-01-10T10:26:51.746Z,92.13
2023-01-10T10:27:51.753Z,92.54
2023-01-10T10:28:55.056Z,92.23
2023-01-10T10:29:51.729Z,92.85
2023-01-10T10:30:51.699Z,92.91
2023-01-10T10:31:51.859Z,91.82
2023-01-10T10:32:51.672Z,91.46
2023-01-10T10:33:51.697Z,91.56
2023-01-10T10:34:51.645Z,91.98
2023-01-10T10:35:51.664Z,92.08
2023-01-10T10:36:51.613Z,91.26
2023-01-10T10:37:51.840Z,90.95
2023-01-10T10:38:51.593Z,91.26
2023-01-10T10:39:51.603Z,91.26
2023-01-10T10:40:51.572Z,90.43
2023-01-10T10:41:51.585Z,89.40
2023-01-10T10:42:51.543Z,89.50
2023-01-10T10:43:51.613Z,89.19
2023-01-10T10:44:51.519Z,89.71
2023-01-10T10:45:51.538Z,89.15
2023-01-10T10:46:51.491Z,89.25
2023-01-10T10:47:51.501Z,89.46
2023-01-10T10:48:51.475Z,89.15
2023-01-10T10:49:51.648Z,88.84
2023-01-10T10:50:51.460Z,88.84
2023-01-10T10:51:51.493Z,88.84
2023-01-10T10:52:51.422Z,88.43
2023-01-10T10:53:51.421Z,87.71
2023-01-10T10:54:51.396Z,88.22
2023-01-10T10:55:51.456Z,88.12
2023-01-10T10:56:51.367Z,88.64
2023-01-10T10:57:59.755Z,88.53
2023-01-10T10:58:52.345Z,88.64
2023-01-10T10:59:51.352Z,88.53
2023-01-10T11:00:51.464Z,88.74
2023-01-10T11:01:51.506Z,88.22
2023-01-10T11:02:51.285Z,88.74
2023-01-10T11:03:51.299Z,88.12
2023-01-10T11:04:51.340Z,88.22
2023-01-10T11:05:51.263Z,88.12
2023-01-10T11:06:51.242Z,87.71
2023-01-10T11:07:51.528Z,87.81
2023-01-10T11:08:51.221Z,88.02
2023-01-10T11:09:51.221Z,88.02
2023-01-10T11:10:51.382Z,87.05
2023-01-10T11:11:51.190Z,86.94
2023-01-10T11:12:51.208Z,87.46
2023-01-10T11:14:01.284Z,86.63
2023-01-10T11:14:51.227Z,86.94
2023-01-10T11:15:51.146Z,86.22
2023-01-10T11:16:51.380Z,86.18
2023-01-10T11:17:51.129Z,85.71
2023-01-10T11:18:51.138Z,85.60
2023-01-10T11:19:51.092Z,85.81
2023-01-10T11:20:51.082Z,84.67
2023-01-10T11:21:51.110Z,84.47
2023-01-10T11:22:51.106Z,84.74
2023-01-10T11:23:51.081Z,83.91
2023-01-10T11:24:51.066Z,83.91
2023-01-10T11:25:51.018Z,83.50
2023-01-10T11:26:51.013Z,82.26
2023-01-10T11:27:51.018Z,82.12
2023-01-10T11:28:51.006Z,82.54
2023-01-10T11:29:50.997Z,82.02
2023-01-10T11:30:50.946Z,81.30
2023-01-10T11:31:50.959Z,81.20
2023-01-10T11:32:51.109Z,80.27
2023-01-10T11:33:50.919Z,79.75
2023-01-10T11:34:50.881Z,79.96
2023-01-10T11:35:50.908Z,79.24
2023-01-10T11:36:50.854Z,78.83
2023-01-10T11:37:50.893Z,78.52
2023-01-10T11:38:50.886Z,78.52
2023-01-10T11:39:50.959Z,78.72
2023-01-10T11:40:50.803Z,78.69
2023-01-10T11:41:50.811Z,78.72
2023-01-10T11:42:50.843Z,78.52
2023-01-10T11:43:50.785Z,78.11
2023-01-10T11:44:50.795Z,78.21
2023-01-10T11:45:50.824Z,78.58
2023-01-10T11:46:50.751Z,78.28
2023-01-10T11:47:50.737Z,78.28
2023-01-10T11:49:05.599Z,77.66
2023-01-10T11:49:51.738Z,77.97
2023-01-10T11:50:50.682Z,78.48
2023-01-10T11:51:50.702Z,77.86
2023-01-10T11:52:50.710Z,77.76
2023-01-10T11:53:50.659Z,77.76
2023-01-10T11:54:50.651Z,77.66
2023-01-10T11:55:50.644Z,78.17
2023-01-10T11:56:50.638Z,78.38
2023-01-10T11:57:50.634Z,78.38
2023-01-10T11:58:50.598Z,78.17
2023-01-10T11:59:50.641Z,78.11
2023-01-10T12:00:50.629Z,78.17
2023-01-10T12:01:50.620Z,78.79
2023-01-10T12:03:00.112Z,78.69
2023-01-10T12:03:50.553Z,78.55
2023-01-10T12:04:50.548Z,78.14
2023-01-10T12:05:50.694Z,78.03
2023-01-10T12:06:50.473Z,77.62
2023-01-10T12:07:50.487Z,77.62
2023-01-10T12:08:50.492Z,77.42
2023-01-10T12:09:50.471Z,76.79
2023-01-10T12:10:50.451Z,76.53
2023-01-10T12:11:50.553Z,77.04
2023-01-10T12:12:50.409Z,77.55
2023-01-10T12:13:50.439Z,77.83
2023-01-10T12:14:50.437Z,78.03
2023-01-10T12:15:50.540Z,77.83
2023-01-10T12:16:50.353Z,77.11
2023-01-10T12:17:50.355Z,77.11
2023-01-10T12:18:50.324Z,78.03
2023-01-10T12:19:50.343Z,78.00
2023-01-10T12:20:50.315Z,76.90
2023-01-10T12:21:50.538Z,76.70
2023-01-10T12:22:50.282Z,77.11
2023-01-10T12:23:50.294Z,77.42
2023-01-10T12:24:50.259Z,77.11
2023-01-10T12:25:53.204Z,76.90
2023-01-10T12:26:51.661Z,77.00
2023-01-10T12:27:50.284Z,77.00
2023-01-10T12:28:50.214Z,76.79
2023-01-10T12:29:50.225Z,76.90
2023-01-10T12:30:50.332Z,76.79
2023-01-10T12:31:50.228Z,76.45
2023-01-10T12:32:50.332Z,76.14
2023-01-10T12:33:50.146Z,76.25
2023-01-10T12:34:50.187Z,76.25
2023-01-10T12:35:50.235Z,75.73
2023-01-10T12:36:50.095Z,75.84
2023-01-10T12:37:50.109Z,75.90
2023-01-10T12:38:50.188Z,75.59
2023-01-10T12:39:50.069Z,75.39
2023-01-10T12:40:50.072Z,74.77
2023-01-10T12:41:50.085Z,74.60
2023-01-10T12:42:50.022Z,74.60
2023-01-10T12:43:50.040Z,74.70
2023-01-10T12:44:50.214Z,75.01
2023-01-10T12:45:50.042Z,75.42
2023-01-10T12:47:05.193Z,74.80
2023-01-10T12:47:51.004Z,75.42
2023-01-10T12:48:49.942Z,75.22
2023-01-10T12:49:49.989Z,74.80
2023-01-10T12:50:50.009Z,74.60
2023-01-10T12:51:49.925Z,74.91
2023-01-10T12:52:49.893Z,75.12
2023-01-10T12:53:49.921Z,74.91
2023-01-10T12:54:49.870Z,75.12
2023-01-10T12:55:51.593Z,75.25
2023-01-10T12:56:49.854Z,74.74
2023-01-10T12:57:52.029Z,75.15
2023-01-10T12:58:49.842Z,74.74
2023-01-10T12:59:49.973Z,75.15
2023-01-10T13:00:49.840Z,75.67
2023-01-10T13:01:49.919Z,75.67
2023-01-10T13:02:49.788Z,75.39
2023-01-10T13:03:49.775Z,75.70
2023-01-10T13:04:49.731Z,75.08
2023-01-10T13:05:50.070Z,75.70
2023-01-10T13:06:49.729Z,75.39
2023-01-10T13:07:49.742Z,75.49
2023-01-10T13:08:49.692Z,76.01
2023-01-10T13:09:49.770Z,76.21
2023-01-10T13:10:49.676Z,75.70
2023-01-10T13:11:49.696Z,74.98
2023-01-10T13:12:49.656Z,74.05
2023-01-10T13:13:52.053Z,74.36
2023-01-10T13:14:49.621Z,74.26
2023-01-10T13:15:49.954Z,74.36
2023-01-10T13:16:49.608Z,74.33
2023-01-10T13:17:49.607Z,74.74
2023-01-10T13:18:49.599Z,74.08
2023-01-10T13:19:49.738Z,74.29
2023-01-10T13:20:49.546Z,73.26
2023-01-10T13:21:50.407Z,73.06
2023-01-10T13:22:49.512Z,73.16
2023-01-10T13:23:49.538Z,73.33
2023-01-10T13:24:49.503Z,73.54
2023-01-10T13:25:49.503Z,73.64
2023-01-10T13:26:49.481Z,73.64
2023-01-10T13:27:49.515Z,73.64
2023-01-10T13:28:49.447Z,73.54
2023-01-10T13:29:49.458Z,73.57
2023-01-10T13:30:50.391Z,73.36
2023-01-10T13:31:49.791Z,73.78
2023-01-10T13:32:49.382Z,73.78
2023-01-10T13:33:49.384Z,74.80
2023-01-10T13:34:49.376Z,75.22
2023-01-10T13:35:49.410Z,74.70
2023-01-10T13:36:49.733Z,75.01
2023-01-10T13:37:49.367Z,75.12
2023-01-10T13:38:49.310Z,74.33
2023-01-10T13:39:49.303Z,74.43
2023-01-10T13:40:49.298Z,74.33
2023-01-10T13:41:49.383Z,74.60
2023-01-10T13:42:49.318Z,74.50
2023-01-10T13:43:50.167Z,74.70
2023-01-10T13:44:49.432Z,74.43
2023-01-10T13:45:49.256Z,74.74
2023-01-10T13:46:49.221Z,75.05
2023-01-10T13:47:49.231Z,75.05
2023-01-10T13:48:49.183Z,74.84
2023-01-10T13:49:49.181Z,74.08
2023-01-10T13:50:49.264Z,73.16
2023-01-10T13:51:49.163Z,73.06
2023-01-10T13:52:49.137Z,72.44
2023-01-10T13:53:49.142Z,72.44
2023-01-10T13:54:49.110Z,72.96
2023-01-10T13:55:49.113Z,73.26
2023-01-10T13:56:49.317Z,73.16
2023-01-10T13:57:49.080Z,72.64
2023-01-10T13:58:49.135Z,72.24
2023-01-10T13:59:49.093Z,72.34
2023-01-10T14:00:49.058Z,72.64
2023-01-10T14:01:49.200Z,72.54
2023-01-10T14:02:49.265Z,72.78
2023-01-10T14:03:50.475Z,72.37
2023-01-10T14:04:49.024Z,72.58
2023-01-10T14:05:48.975Z,72.58
2023-01-10T14:06:48.999Z,72.88
2023-01-10T14:07:48.935Z,72.47
2023-01-10T14:08:49.216Z,72.58
2023-01-10T14:09:48.917Z,72.78
2023-01-10T14:10:55.938Z,73.50
2023-01-10T14:11:56.384Z,73.61
2023-01-10T14:12:56.418Z,74.12
2023-01-10T14:13:48.855Z,74.33
2023-01-10T14:14:48.900Z,74.33
2023-01-10T14:15:48.872Z,74.33
2023-01-10T14:16:48.916Z,74.63
2023-01-10T14:17:48.819Z,74.33
2023-01-10T14:18:48.824Z,74.33
2023-01-10T14:19:48.788Z,74.43
2023-01-10T14:20:48.836Z,74.22
2023-01-10T14:21:48.754Z,74.02
2023-01-10T14:22:48.792Z,74.22
2023-01-10T14:23:48.745Z,74.33
2023-01-10T14:24:48.741Z,74.02
2023-01-10T14:25:48.742Z,74.43
2023-01-10T14:26:48.739Z,74.63
2023-01-10T14:27:48.758Z,74.53
2023-01-10T14:28:48.699Z,74.02
2023-01-10T14:29:48.673Z,73.95
2023-01-10T14:30:48.799Z,74.05
2023-01-10T14:31:48.628Z,74.77
2023-01-10T14:32:48.620Z,74.57
2023-01-10T14:33:48.639Z,74.02
2023-01-10T14:34:48.609Z,73.71
2023-01-10T14:35:48.600Z,74.02
2023-01-10T14:36:48.646Z,74.02
2023-01-10T14:37:48.563Z,73.47
2023-01-10T14:38:48.564Z,73.16
2023-01-10T14:39:48.527Z,73.91
2023-01-10T14:40:48.571Z,74.12
2023-01-10T14:41:48.494Z,74.43
2023-01-10T14:42:48.613Z,74.05
2023-01-10T14:43:48.495Z,74.36
2023-01-10T14:44:48.503Z,74.67
2023-01-10T14:45:48.539Z,74.88
2023-01-10T14:46:48.565Z,73.74
2023-01-10T14:47:48.430Z,73.64
2023-01-10T14:48:50.974Z,73.23
2023-01-10T14:49:48.398Z,73.02
2023-01-10T14:50:48.441Z,73.23
2023-01-10T14:51:48.471Z,73.74
2023-01-10T14:52:48.415Z,73.68
2023-01-10T14:53:48.361Z,73.36
2023-01-10T14:54:48.406Z,73.36
2023-01-10T14:55:48.335Z,73.68
2023-01-10T14:56:48.326Z,73.57
2023-01-10T14:57:48.373Z,73.50
2023-01-10T14:58:48.301Z,73.91
2023-01-10T14:59:48.302Z,74.53
2023-01-10T15:00:48.409Z,74.95
2023-01-10T15:01:48.643Z,74.95
2023-01-10T15:02:48.263Z,74.46
2023-01-10T15:03:48.219Z,73.95
2023-01-10T15:04:48.296Z,74.67
2023-01-10T15:05:48.218Z,74.77
2023-01-10T15:06:48.230Z,74.46
2023-01-10T15:07:48.250Z,74.77
2023-01-10T15:08:48.224Z,74.26
2023-01-10T15:09:48.162Z,74.05
2023-01-10T15:10:48.162Z,74.29
2023-01-10T15:11:48.142Z,74.40
2023-01-10T15:12:48.178Z,74.50
2023-01-10T15:13:48.163Z,74.19
2023-01-10T15:14:48.148Z,74.60
2023-01-10T15:15:48.118Z,74.60
2023-01-10T15:16:48.151Z,74.63
2023-01-10T15:17:48.037Z,74.74
2023-01-10T15:18:48.093Z,74.84
2023-01-10T15:19:48.008Z,75.15
2023-01-10T15:20:48.043Z,75.26
2023-01-10T15:21:48.031Z,75.98
2023-01-10T15:22:48.002Z,76.22
2023-01-10T15:23:47.972Z,76.43
2023-01-10T15:24:47.986Z,76.32
2023-01-10T15:25:47.999Z,76.22
2023-01-10T15:26:47.987Z,76.32
2023-01-10T15:27:47.924Z,76.73
2023-01-10T15:28:47.981Z,76.94
2023-01-10T15:29:47.916Z,76.32
2023-01-10T15:30:47.896Z,76.64
2023-01-10T15:31:48.165Z,76.26
2023-01-10T15:32:47.865Z,76.67
2023-01-10T15:33:47.853Z,75.84
2023-01-10T15:34:47.864Z,75.53
2023-01-10T15:35:47.821Z,75.74
2023-01-10T15:36:47.863Z,75.63
2023-01-10T15:37:48.243Z,75.32
2023-01-10T15:38:47.804Z,75.53
2023-01-10T15:39:47.782Z,75.74
2023-01-10T15:40:47.755Z,76.15
2023-01-10T15:41:47.737Z,76.05
2023-01-10T15:42:47.736Z,76.39
2023-01-10T15:43:47.814Z,76.09
2023-01-10T15:44:47.732Z,76.09
2023-01-10T15:45:47.696Z,76.18
2023-01-10T15:46:47.761Z,75.98
2023-01-10T15:47:47.674Z,75.98
2023-01-10T15:48:47.690Z,76.09
2023-01-10T15:49:47.706Z,75.78
2023-01-10T15:50:47.651Z,75.78
2023-01-10T15:51:47.768Z,76.18
2023-01-10T15:52:47.646Z,76.09
2023-01-10T15:53:47.644Z,76.29
2023-01-10T15:54:47.601Z,76.50
2023-01-10T15:55:47.935Z,76.60
2023-01-10T15:56:47.611Z,76.18
2023-01-10T15:57:47.569Z,76.95
2023-01-10T15:58:47.556Z,76.95
2023-01-10T15:59:47.534Z,76.74
2023-01-10T16:00:47.595Z,77.15
2023-01-10T16:01:47.799Z,77.77
2023-01-10T16:02:47.667Z,77.60
2023-01-10T16:03:47.680Z,77.39
2023-01-10T16:04:47.493Z,77.29
2023-01-10T16:05:47.453Z,76.78
2023-01-10T16:06:47.489Z,76.88
2023-01-10T16:07:47.477Z,76.57
2023-01-10T16:08:47.420Z,76.46
2023-01-10T16:09:47.407Z,76.57
2023-01-10T16:10:47.421Z,76.26
2023-01-10T16:11:47.359Z,76.46
2023-01-10T16:12:47.418Z,76.36
2023-01-10T16:13:47.338Z,77.39
2023-01-10T16:14:47.350Z,76.98
2023-01-10T16:15:47.385Z,77.39
2023-01-10T16:16:47.319Z,77.53
2023-01-10T16:17:47.283Z,77.74
2023-01-10T16:18:47.287Z,77.33
2023-01-10T16:19:47.259Z,77.74
2023-01-10T16:20:47.290Z,78.36
2023-01-10T16:21:47.535Z,78.78
2023-01-10T16:22:47.264Z,79.13
2023-01-10T16:23:47.226Z,79.02
2023-01-10T16:24:47.223Z,79.13
2023-01-10T16:25:47.207Z,79.13
2023-01-10T16:26:47.181Z,79.44
2023-01-10T16:27:47.767Z,79.02
2023-01-10T16:28:47.190Z,79.44
2023-01-10T16:29:47.165Z,78.64
2023-01-10T16:30:47.158Z,78.71
2023-01-10T16:31:47.132Z,78.92
2023-01-10T16:32:47.136Z,79.23
2023-01-10T16:33:47.169Z,79.16
2023-01-10T16:34:47.083Z,79.37
2023-01-10T16:35:47.081Z,79.47
2023-01-10T16:36:47.108Z,79.68
2023-01-10T16:37:47.029Z,79.68
2023-01-10T16:38:47.064Z,80.09
2023-01-10T16:39:47.888Z,79.88
2023-01-10T16:40:47.017Z,80.19
2023-01-10T16:41:46.980Z,80.51
2023-01-10T16:42:46.994Z,80.85
2023-01-10T16:43:46.953Z,80.96
2023-01-10T16:44:46.977Z,81.27
2023-01-10T16:45:47.516Z,81.58
2023-01-10T16:46:46.936Z,81.37
2023-01-10T16:47:46.908Z,81.58
2023-01-10T16:48:46.952Z,82.10
2023-01-10T16:49:46.893Z,81.99
2023-01-10T16:50:46.885Z,81.99
2023-01-10T16:51:46.895Z,82.10
2023-01-10T16:52:46.869Z,82.20
2023-01-10T16:53:46.822Z,82.20
2023-01-10T16:54:46.821Z,82.31
2023-01-10T16:55:46.804Z,82.41
2023-01-10T16:56:46.807Z,82.82
2023-01-10T16:57:47.005Z,82.86
2023-01-10T16:58:46.782Z,82.76
2023-01-10T16:59:46.750Z,83.07
2023-01-10T17:00:46.847Z,83.07
2023-01-10T17:01:46.888Z,82.97
2023-01-10T17:02:46.729Z,83.28
2023-01-10T17:03:46.776Z,82.82
2023-01-10T17:04:46.696Z,82.93
2023-01-10T17:05:46.679Z,82.51
2023-01-10T17:06:46.681Z,81.89
2023-01-10T17:07:46.640Z,81.68
2023-01-10T17:08:46.945Z,81.99
2023-01-10T17:09:46.630Z,81.96
2023-01-10T17:10:46.620Z,81.13
2023-01-10T17:11:46.623Z,81.54
2023-01-10T17:12:46.607Z,80.68
2023-01-10T17:13:46.601Z,79.95
2023-01-10T17:14:47.429Z,80.36
2023-01-10T17:15:46.538Z,80.26
2023-01-10T17:16:46.566Z,80.47
2023-01-10T17:17:46.534Z,80.57
2023-01-10T17:18:46.540Z,80.68
2023-01-10T17:19:46.503Z,80.88
2023-01-10T17:20:46.627Z,80.78
2023-01-10T17:21:46.476Z,79.44
2023-01-10T17:22:46.577Z,79.23
2023-01-10T17:23:46.536Z,78.78
2023-01-10T17:24:46.465Z,78.99
2023-01-10T17:25:47.058Z,78.99
2023-01-10T17:26:46.426Z,78.88
2023-01-10T17:27:46.394Z,78.47
2023-01-10T17:28:46.414Z,78.57
2023-01-10T17:29:46.366Z,78.47
2023-01-10T17:30:46.382Z,78.88
2023-01-10T17:31:46.661Z,78.67
2023-01-10T17:32:46.348Z,78.78
2023-01-10T17:33:46.312Z,78.67
2023-01-10T17:34:46.349Z,79.09
2023-01-10T17:35:46.284Z,79.30
2023-01-10T17:36:46.296Z,79.33
2023-01-10T17:37:46.462Z,79.74
2023-01-10T17:38:46.283Z,79.64
2023-01-10T17:39:46.244Z,79.44
2023-01-10T17:40:46.250Z,79.64
2023-01-10T17:41:46.218Z,79.64
2023-01-10T17:42:46.239Z,79.33
2023-01-10T17:43:46.231Z,79.95
2023-01-10T17:44:46.186Z,79.74
2023-01-10T17:45:46.206Z,79.85
2023-01-10T17:46:46.174Z,79.54
2023-01-10T17:47:46.137Z,79.74
2023-01-10T17:48:46.142Z,80.16
2023-01-10T17:49:46.178Z,80.40
2023-01-10T17:50:46.133Z,80.61
2023-01-10T17:51:46.812Z,80.61
2023-01-10T17:52:46.093Z,80.71